Pahrump, Nevada Weather observations

Data are for observation ending at time listed.
 Day   Time    Ave.   Ave.  Ave.  Vector   Max.   Stn.    Total    Solar   Ave.  
  of    of     Air    Rel.  Wind   Wind    Wind   Baro.  Precip.   Rad.    Soil  
Year   Day     Temp.  Hum.  Speed  Dir.    Gust   Pres.                    Temp. 
2026   (PST)    F      %     mph   deg.    mph     mb.     in.     W/m2     F   
------------------------------------------------------------------------------
 123   17:40   81.9    14    4.0   222      9.0   913.5    0.00     156    83.7
 123   17:50   81.1    14    5.4   231     12.5   913.5    0.00     125    83.7
 123   18:00   80.3    14    5.7   236     11.4   913.4    0.00      95    83.7
 123   18:10   79.7    14    4.6   233     11.8   913.4    0.00      65    83.6
 123   18:20   79.0    14    3.8   232     10.6   913.3    0.00      42    83.5
 123   18:30   78.3    14    2.5   227      8.3   913.3    0.00      21    83.3
 123   18:40   77.4    14    2.1   210      5.9   913.3    0.00       5    83.1
 123   18:50   76.9    14    2.1   204      7.2   913.2    0.00       2    82.9
 123   19:00   76.5    15    3.1   199      7.2   913.1    0.00       0    82.7
 123   19:10   76.5    15    3.2   191      8.3   913.1    0.00       0    82.5
 123   19:20   76.2    16    3.2   183      7.3   913.1    0.00       0    82.3
 123   19:30   75.6    16    3.4   197      8.0   913.4    0.00       0    82.1
 123   19:40   74.7    19    0.2   241      3.4   913.6    0.00       0    81.8
 123   19:50   74.1    22    0.0   221      0.1   913.7    0.00       0    81.6
 123   20:00   73.7    24    0.0   182      0.1   913.8    0.00       0    81.4
 123   20:10   73.3    25    0.0   206      0.1   914.1    0.00       0    81.2
 123   20:20   72.9    25    0.0   170      0.1   914.4    0.00       0    81.1
 123   20:30   72.6    25    0.0   186      0.1   914.4    0.00       0    80.9
 123   20:40   72.6    25    0.0   208      0.1   914.5    0.00       0    80.7
 123   20:50   71.8    26    0.1   215      2.5   914.5    0.00       0    80.5
 123   21:00   71.2    26    1.3   186      4.5   914.5    0.00       0    80.3
 123   21:10   71.6    24    4.8   173      8.3   914.5    0.00       0    80.2
 123   21:20   71.7    24    4.4   180      9.6   914.4    0.00       0    80.0
 123   21:30   71.3    24    5.6   162     13.3   914.3    0.00       0    79.8
 123   21:40   70.7    25    6.9   157     13.1   914.1    0.00       0    79.7
 123   21:50   70.2    27    4.6   168     12.1   914.0    0.00       0    79.5
 123   22:00   69.3    28    0.0   170      0.1   914.1    0.00       0    79.4
 123   22:10   68.9    28    0.0   203      4.5   914.2    0.00       0    79.2
 123   22:20   68.9    28    4.1   149     12.3   914.4    0.00       0    79.1
 123   22:30   68.6    27    6.3   143     14.8   914.5    0.00       0    78.9
 123   22:40   68.7    24    0.0   158      0.1   914.3    0.00       0    78.8
 123   22:50   68.9    21    0.0   174      0.1   914.5    0.00       0    78.6
 123   23:00   68.5    21    0.0   179      0.1   914.7    0.00       0    78.5
 123   23:10   68.0    20    2.7   159     11.3   914.6    0.00       0    78.3
 123   23:20   67.4    21    7.1   146     12.9   914.6    0.00       0    78.2
 123   23:30   66.8    21    7.4   147     13.3   914.6    0.00       0    78.1
 123   23:40   66.4    21    1.7   142     14.1   914.6    0.00       0    77.9
 123   23:50   65.7    24    4.5   142     18.9   914.8    0.00       0    77.8
 124    0:00   65.1    25    9.8   142     16.4   914.8    0.00       0    77.6
 124    0:10   64.3    26    7.9   145     17.2   914.8    0.00       0    77.5
 124    0:20   63.9    28    9.9   148     18.7   914.8    0.00       0    77.3
 124    0:30   63.7    30    9.6   147     18.6   914.7    0.00       0    77.2
 124    0:40   63.3    32   11.3   144     21.0   914.7    0.00       0    77.1
 124    0:50   62.8    33    9.9   150     18.3   914.6    0.00       0    76.9
 124    1:00   62.5    34    9.7   154     18.9   914.6    0.00       0    76.8
 124    1:10   62.3    35    8.1   158     15.5   914.6    0.00       0    76.7
 124    1:20   62.0    36    8.0   154     15.1   914.5    0.00       0    76.5
 124    1:30   61.7    37    8.9   158     16.5   914.3    0.00       0    76.4
 124    1:40   61.2    38   10.3   149     17.7   914.4    0.00       0    76.3
 124    1:50   60.8    39   11.3   142     18.0   914.6    0.00       0    76.1
 124    2:00   60.9    38    9.5   148     16.1   914.6    0.00       0    76.0
 124    2:10   60.8    39    9.1   143     14.9   914.5    0.00       0    75.8
 124    2:20   60.5    40    9.7   141     14.9   914.5    0.00       0    75.7
 124    2:30   60.1    41   10.1   141     15.7   914.6    0.00       0    75.6
 124    2:40   59.5    42   12.0   140     17.4   914.4    0.00       0    75.5
 124    2:50   59.2    44    7.0   153     13.2   914.4    0.00       0    75.3
 124    3:00   59.5    43    7.4   165     14.0   914.3    0.00       0    75.2
 124    3:10   59.3    43    6.3   180     11.0   914.2    0.00       0    75.1
 124    3:20   58.6    45    7.2   181     13.4   914.3    0.00       0    74.9
 124    3:30   58.4    44    6.3   166     13.8   914.3    0.00       0    74.8
 124    3:40   58.3    44    6.2   155     11.5   914.3    0.00       0    74.7
 124    3:50   57.9    46   10.6   144     20.8   914.2    0.00       0    74.5
 124    4:00   57.3    49   12.6   144     19.1   914.2    0.00       0    74.4
 124    4:10   57.1    50   11.8   143     20.7   914.3    0.00       0    74.3
 124    4:20   56.9    50    9.4   150     20.1   914.2    0.00       0    74.1
 124    4:30   57.0    50    8.8   160     15.5   914.2    0.00       0    74.0
 124    4:40   57.3    49    8.4   156     16.0   914.4    0.00       0    73.9
 124    4:50   56.7    50   10.7   150     18.6   914.5    0.00       1    73.7
 124    5:00   56.4    51    8.0   159     15.9   914.7    0.00       4    73.6
 124    5:10   56.1    52    5.8   164     11.0   914.8    0.00       7    73.5
 124    5:20   56.1    53    6.5   172     14.1   914.8    0.00      14    73.4
 124    5:30   56.3    53    7.6   182     15.8   914.7    0.00      47    73.3
 124    5:40   56.8    53    8.5   169     15.0   914.6    0.00      63    73.1
 124    5:50   56.9    53    2.6   152     17.2   914.8    0.00     117    73.0
 124    6:00   57.8    52    0.0   206      0.1   915.0    0.00     131    72.9
 124    6:10   58.0    51    0.5   158     14.0   915.1    0.00     175    72.8
 124    6:20   58.1    51    1.0   144     18.3   915.3    0.00     203    72.7
 124    6:30   56.7    53   10.3   146     20.2   915.5    0.00     193    72.6
 124    6:40   56.7    53   12.1   146     20.8   915.6    0.00     208    72.5
 124    6:50   57.3    52   10.9   144     17.1   915.5    0.00     228    72.4
 124    7:00   57.9    50    7.7   147     17.0   915.7    0.00     290    72.4
 124    7:10   58.4    49    1.7   143     17.0   915.8    0.00     389    72.3
 124    7:20   58.5    48    8.9   143     17.4   915.9    0.00     376    72.3
 124    7:30   59.0    47   11.2   146     18.9   915.9    0.00     351    72.2
 124    7:40   60.0    45    8.0   151     14.6   915.8    0.00     331    72.2
 124    7:50   59.6    45   10.5   155     19.5   915.9    0.00     349    72.1
 124    8:00   60.3    44    9.3   164     15.5   916.1    0.00     325    72.1
 124    8:10   60.3    44    9.3   161     17.0   916.3    0.00     371    72.1
 124    8:20   61.0    43    8.6   168     17.0   916.5    0.00     372    72.1
 124    8:30   60.6    44    9.9   153     16.7   916.6    0.00     396    72.2
 124    8:40   60.6    42   10.1   149     18.3   916.6    0.00     319    72.2
 124    8:50   61.4    41   10.0   163     19.4   916.6    0.00     484    72.3
 124    9:00   61.8    41    9.3   180     17.0   916.8    0.00     471    72.4
 124    9:10   62.1    41    8.9   183     15.9   916.9    0.00     644    72.6
 124    9:20   63.7    39    4.7   168     13.1   916.9    0.00     720    72.7
 124    9:30   63.3    39    0.0   170      0.1   917.1    0.00     694    72.8
 124    9:40   63.9    38    1.7   156     11.6   917.3    0.00     730    73.0
 124    9:50   64.8    37    0.0   218      0.1   917.3    0.00     843    73.2
 124   10:00   65.4    36    2.4   201      8.1   917.4    0.00     732    73.5
 124   10:10   65.4    36    5.1   196     12.1   917.5    0.00     824    73.9
 124   10:20   66.2    33    5.9   192     13.2   917.5    0.00     894    74.3
 124   10:30   67.5    31    6.6   180     14.2   917.5    0.00     906    74.7
 124   10:40   67.7    29    7.9   181     15.4   917.5    0.00     918    75.2
 124   10:50   68.9    26    7.3   163     15.1   917.5    0.00     935    75.7
 124   11:00   68.8    26    8.7   167     17.0   917.5    0.00     862    76.2
 124   11:10   68.5    27    7.4   169     15.7   917.6    0.00     966    76.6
 124   11:20   69.4    26    7.4   172     13.3   917.5    0.00     937    77.1
 124   11:30   69.0    27    6.8   178     14.5   917.5    0.00     904    77.5
 124   11:40   69.5    27    7.9   178     17.7   917.5    0.00     897    77.9
 124   11:50   69.1    28    6.2   185     15.9   917.5    0.00     865    78.3
 124   12:00   69.0    28    3.8   186     13.9   917.4    0.00     866    78.5
 124   12:10   69.2    27    2.1   167     13.7   917.4    0.00     799    78.8
 124   12:20   71.7    24    4.0   163     16.0   917.3    0.00     970    79.1
 124   12:30   71.1    23    8.4   176     17.2   917.3    0.00     935    79.3
 124   12:40   70.9    23    6.8   180     15.1   917.3    0.00     957    79.6
 124   12:50   72.0    22    6.0   182     11.0   917.3    0.00     914    79.8
 124   13:00   71.7    21    5.1   206     11.2   917.4    0.00     919    80.1
 124   13:10   71.8    21    6.6   191     14.8   917.3    0.00     922    80.4
 124   13:20   72.9    20    2.1   174     14.5   917.4    0.00     934    80.7
 124   13:30   71.7    21    5.8   188     15.4   917.3    0.00     909    81.0
 124   13:40   72.3    23    5.4   193     15.7   917.2    0.00     866    81.3
 124   13:50   72.6    22    8.2   179     19.6   917.1    0.00     854    81.6
 124   14:00   72.9    22    5.8   186     11.0   916.9    0.00     794    81.7
 124   14:10   73.2    22    5.1   228     16.8   916.8    0.00     812    81.7
 124   14:20   73.3    21    6.6   185     15.5   916.5    0.00     742    81.6
 124   14:30   74.2    21    5.5   189     17.5   916.4    0.00     683    81.5
 124   14:40   74.6    20    6.4   182     14.6   916.4    0.00     810    81.4
 124   14:50   74.1    20    4.8   226     17.5   916.4    0.00     737    81.2
 124   15:00   74.1    19    6.0   197     14.2   916.3    0.00     698    81.1
 124   15:10   74.1    20    5.7   206     15.1   916.3    0.00     672    81.0
 124   15:20   74.2    20    6.9   205     15.6   916.2    0.00     630    81.1
 124   15:30   72.9    20    5.9   226     13.4   916.2    0.00     603    81.2
 124   15:40   74.0    19    6.2   187     12.3   916.1    0.00     562    81.4
 124   15:50   73.7    20    6.7   204     14.0   916.0    0.00     533    81.6
 124   16:00   73.1    20    5.6   202     12.7   915.9    0.00     498    81.8
 124   16:10   73.3    18    6.6   210     15.9   915.9    0.00     475    82.0
 124   16:20   72.6    18    5.5   225     12.9   915.8    0.00     444    82.1
 124   16:30   72.7    19    4.9   218     10.2   915.9    0.00     407    82.3
 124   16:40   72.2    18    5.1   225     12.9   915.8    0.00     373    82.3
 124   16:50   71.5    18    4.8   236     16.2   915.8    0.00     340    82.4
 124   17:00   71.4    17    4.9   227     12.8   915.7    0.00     307    82.4
 124   17:10   71.1    17    4.9   229     10.2   915.6    0.00     273    82.4
 124   17:20   70.2    18    4.9   223     12.9   915.4    0.00     238    82.4
 124   17:30   70.0    19    4.0   214     10.2   915.4    0.00     204    82.3

Return to Pahrump, Nevada graphs page.


Western Regional Climate Center,wrcc@dri.edu